Time;durP1;ratioP1;P1;durP2;ratioP2;P2;SDS_P1;SDS_P2;PMS_P1;PMS_P2;Temp;Humidity;BMP_temperature;BMP_pressure;BME280_temperature;BME280_humidity;BME280_pressure;Samples;Min_cycle;Max_cycle;Signal;HPM_P1;HPM_P2
2023/03/05 14:59:02;;;;;;;1.35;1.02;;;6.30;99.90;;;;;;5068110;28;20836;-67
2023/03/05 15:01:28;;;;;;;2.83;1.08;;;6.20;99.90;;;;;;5064860;28;20033;-68
2023/03/05 15:03:54;;;;;;;1.98;0.98;;;6.30;99.90;;;;;;5062916;28;20120;-66
2023/03/05 15:06:32;;;;;;;2.25;1.10;;;6.40;99.90;;;;;;5048787;28;20063;-67
2023/03/05 15:08:59;;;;;;;3.20;1.13;;;6.40;99.90;;;;;;5059008;28;20013;-68
2023/03/05 15:11:25;;;;;;;0.93;0.90;;;6.50;99.90;;;;;;5062997;28;20067;-68
2023/03/05 15:13:50;;;;;;;2.67;1.10;;;6.50;99.90;;;;;;5042137;28;20409;-68
2023/03/05 15:16:20;;;;;;;1.02;0.85;;;6.60;99.90;;;;;;5041140;28;20024;-69
2023/03/05 15:18:46;;;;;;;1.95;1.10;;;6.70;99.90;;;;;;5046450;28;20037;-68
2023/03/05 15:21:12;;;;;;;2.50;1.20;;;6.70;99.90;;;;;;5036452;28;20026;-68
2023/03/05 15:23:38;;;;;;;2.38;1.00;;;6.80;99.90;;;;;;5031591;28;20452;-68
2023/03/05 15:26:07;;;;;;;1.42;1.02;;;6.90;99.90;;;;;;5047528;28;20029;-68
2023/03/05 15:28:37;;;;;;;1.35;1.10;;;6.90;99.90;;;;;;5048761;28;20025;-68
2023/03/05 15:31:05;;;;;;;2.15;1.00;;;6.90;99.90;;;;;;5032151;28;20044;-67
2023/03/05 15:33:31;;;;;;;1.83;0.88;;;6.90;99.90;;;;;;5028176;28;20087;-68
2023/03/05 15:35:58;;;;;;;1.92;0.98;;;6.80;99.90;;;;;;5048486;28;20025;-68
2023/03/05 15:38:24;;;;;;;1.67;1.00;;;6.80;99.90;;;;;;5049301;28;20025;-68
2023/03/05 15:40:51;;;;;;;2.03;0.90;;;6.80;99.90;;;;;;5047199;28;20458;-68
2023/03/05 15:43:18;;;;;;;3.35;1.20;;;6.80;99.90;;;;;;5044887;28;20017;-68
2023/03/05 15:45:45;;;;;;;1.85;1.00;;;6.80;99.90;;;;;;5036916;28;20127;-67
2023/03/05 15:48:11;;;;;;;1.98;1.00;;;6.70;99.90;;;;;;5065818;28;20055;-67
2023/03/05 15:50:40;;;;;;;4.10;1.35;;;6.70;99.90;;;;;;5057757;28;20482;-67
2023/03/05 15:53:06;;;;;;;2.10;0.93;;;6.70;99.90;;;;;;5058968;28;20147;-68
2023/03/05 15:55:39;;;;;;;1.38;1.13;;;6.70;99.90;;;;;;5046681;28;20095;-68
2023/03/05 15:58:06;;;;;;;1.85;1.02;;;6.70;99.90;;;;;;5045088;28;20521;-67
2023/03/05 16:00:34;;;;;;;1.30;0.90;;;6.70;99.90;;;;;;5046550;28;20489;-68
2023/03/05 16:03:00;;;;;;;1.30;0.80;;;6.70;99.90;;;;;;5047860;28;20478;-68
2023/03/05 16:05:26;;;;;;;1.38;1.15;;;6.60;99.90;;;;;;5048124;28;20028;-68
2023/03/05 16:07:53;;;;;;;1.65;0.82;;;6.70;99.90;;;;;;5048865;28;20055;-67
2023/03/05 16:10:24;;;;;;;3.15;1.38;;;6.70;99.90;;;;;;5044963;28;20036;-67
2023/03/05 16:12:54;;;;;;;1.63;1.40;;;6.70;99.90;;;;;;5050268;28;20052;-67
2023/03/05 16:15:23;;;;;;;5.57;1.40;;;6.70;99.90;;;;;;5033089;28;20493;-66
2023/03/05 16:17:53;;;;;;;3.20;1.52;;;6.70;99.90;;;;;;5034454;28;20037;-68
2023/03/05 16:20:19;;;;;;;2.38;1.80;;;6.70;99.90;;;;;;5044602;28;20029;-68
2023/03/05 16:22:45;;;;;;;3.20;2.00;;;6.70;99.90;;;;;;5037050;28;20018;-69
2023/03/05 16:25:11;;;;;;;3.08;2.10;;;6.70;99.90;;;;;;5039197;28;20368;-67
2023/03/05 16:27:37;;;;;;;5.53;2.33;;;6.80;99.90;;;;;;5052638;28;20037;-67
2023/03/05 16:30:04;;;;;;;6.65;2.97;;;6.80;99.90;;;;;;5048154;28;20024;-68
2023/03/05 16:32:30;;;;;;;9.32;5.00;;;6.80;99.90;;;;;;5037718;28;20116;-68
2023/03/05 16:34:57;;;;;;;11.00;4.93;;;6.80;99.90;;;;;;5041065;28;20049;-67
2023/03/05 16:37:24;;;;;;;9.25;5.65;;;6.80;99.90;;;;;;5034187;28;20026;-69
2023/03/05 16:39:50;;;;;;;7.68;4.57;;;6.80;99.90;;;;;;5034455;28;20538;-69
2023/03/05 16:42:15;;;;;;;5.97;3.72;;;6.80;99.90;;;;;;5034033;28;20029;-64
2023/03/05 16:44:42;;;;;;;5.45;3.45;;;6.70;99.90;;;;;;5034012;28;20025;-65
2023/03/05 16:47:11;;;;;;;5.90;2.88;;;6.70;99.90;;;;;;5033671;28;20067;-69
2023/03/05 16:49:37;;;;;;;3.80;2.20;;;6.70;99.90;;;;;;5036025;28;20029;-68
2023/03/05 16:52:05;;;;;;;4.22;2.47;;;6.70;99.90;;;;;;5053142;28;20104;-67
2023/03/05 16:54:31;;;;;;;4.80;2.17;;;6.70;99.90;;;;;;5051997;28;20493;-69
2023/03/05 16:56:58;;;;;;;3.95;2.22;;;6.70;99.90;;;;;;5052606;28;20083;-69
2023/03/05 16:59:27;;;;;;;2.65;2.03;;;6.70;99.90;;;;;;5034504;28;20030;-70
2023/03/05 17:01:52;;;;;;;5.05;1.95;;;6.60;99.90;;;;;;5026429;28;20083;-72
2023/03/05 17:04:18;;;;;;;3.63;1.73;;;6.60;99.90;;;;;;5031862;28;20474;-75
2023/03/05 17:06:46;;;;;;;3.97;1.90;;;6.60;99.90;;;;;;5013444;28;20030;-75
2023/03/05 17:09:12;;;;;;;3.25;1.92;;;6.50;99.90;;;;;;5030646;28;20029;-73
2023/03/05 17:11:38;;;;;;;4.43;2.58;;;6.50;99.90;;;;;;5032588;28;20033;-74
2023/03/05 17:14:04;;;;;;;5.95;2.30;;;6.40;99.90;;;;;;5032471;28;20070;-70
2023/03/05 17:16:30;;;;;;;7.90;3.10;;;6.30;99.90;;;;;;5033122;28;20070;-76
2023/03/05 17:18:55;;;;;;;5.93;2.90;;;6.30;99.90;;;;;;5032340;28;20037;-71
2023/03/05 17:21:21;;;;;;;4.40;2.40;;;6.30;99.90;;;;;;5031897;28;20030;-73
2023/03/05 17:23:47;;;;;;;5.43;2.38;;;6.20;99.90;;;;;;5033093;28;20034;-69
2023/03/05 17:26:19;;;;;;;4.32;1.90;;;6.10;99.90;;;;;;5032157;28;20025;-70
2023/03/05 17:28:45;;;;;;;4.63;1.50;;;6.10;99.90;;;;;;5047717;28;20029;-69
2023/03/05 17:31:12;;;;;;;2.40;1.55;;;6.10;99.90;;;;;;5030650;28;20087;-71
2023/03/05 17:33:38;;;;;;;4.75;1.55;;;6.00;99.90;;;;;;5030858;28;20017;-70
2023/03/05 17:36:05;;;;;;;3.70;1.45;;;6.00;99.90;;;;;;5025796;28;20033;-68
2023/03/05 17:38:31;;;;;;;5.32;1.63;;;5.90;99.90;;;;;;5012822;28;20021;-68
2023/03/05 17:40:56;;;;;;;2.08;1.50;;;5.90;99.90;;;;;;5028994;28;20025;-68
2023/03/05 17:43:23;;;;;;;2.55;1.40;;;5.90;99.90;;;;;;5038014;28;20039;-67
2023/03/05 17:45:48;;;;;;;2.00;1.40;;;5.80;99.90;;;;;;5025854;28;20029;-70
2023/03/05 17:48:15;;;;;;;3.50;1.40;;;5.80;99.90;;;;;;5039016;28;20037;-66
2023/03/05 17:50:41;;;;;;;2.40;1.38;;;5.80;99.90;;;;;;5029269;28;20452;-68
2023/03/05 17:53:06;;;;;;;3.53;1.25;;;5.80;99.90;;;;;;5012775;28;20486;-69
2023/03/05 17:55:32;;;;;;;7.15;1.30;;;5.70;99.90;;;;;;5022141;28;20021;-64
2023/03/05 17:57:58;;;;;;;2.25;1.25;;;5.70;99.90;;;;;;5034235;28;20056;-65
2023/03/05 18:00:26;;;;;;;3.53;1.60;;;5.70;99.90;;;;;;5048029;28;20021;-64
2023/03/05 18:02:52;;;;;;;3.08;1.50;;;5.70;99.90;;;;;;5052523;28;20029;-64
2023/03/05 18:05:21;;;;;;;3.13;1.98;;;5.70;99.90;;;;;;5052154;28;20481;-64
2023/03/05 18:07:48;;;;;;;4.43;1.98;;;5.70;99.90;;;;;;5051644;28;20048;-63
2023/03/05 18:10:15;;;;;;;7.57;2.20;;;5.70;99.90;;;;;;5048611;28;20388;-66
2023/03/05 18:12:41;;;;;;;3.78;1.83;;;5.70;99.90;;;;;;5050462;28;20449;-64
2023/03/05 18:15:09;;;;;;;2.58;1.58;;;5.70;99.90;;;;;;5040481;28;20017;-63
2023/03/05 18:17:35;;;;;;;3.83;1.83;;;5.70;99.90;;;;;;5030738;28;20049;-64
2023/03/05 18:20:01;;;;;;;2.10;1.65;;;5.70;99.90;;;;;;5032019;28;20481;-66
2023/03/05 18:22:26;;;;;;;3.20;1.63;;;5.70;99.90;;;;;;5031323;28;20479;-64
2023/03/05 18:24:52;;;;;;;2.33;1.55;;;5.60;99.90;;;;;;5032495;28;20143;-71
2023/03/05 18:27:18;;;;;;;3.97;2.22;;;5.60;99.90;;;;;;5030865;28;20090;-68
2023/03/05 18:29:44;;;;;;;4.35;1.77;;;5.60;99.90;;;;;;5040477;28;20017;-71
2023/03/05 18:32:10;;;;;;;4.50;2.17;;;5.60;99.90;;;;;;5049209;28;20115;-71
2023/03/05 18:34:36;;;;;;;4.80;2.47;;;5.60;99.90;;;;;;5049701;28;20681;-63
2023/03/05 18:37:02;;;;;;;5.53;3.20;;;5.50;99.90;;;;;;5051417;28;20127;-72
2023/03/05 18:39:32;;;;;;;5.32;2.50;;;5.50;99.90;;;;;;5050193;28;20071;-72
2023/03/05 18:41:58;;;;;;;6.40;2.78;;;5.50;99.90;;;;;;5047942;28;20399;-74
2023/03/05 18:44:24;;;;;;;6.07;2.65;;;5.50;99.90;;;;;;5051715;28;20082;-73
2023/03/05 18:46:49;;;;;;;4.15;2.38;;;5.40;99.90;;;;;;5050019;28;20025;-74
2023/03/05 18:49:15;;;;;;;5.70;2.90;;;5.40;99.90;;;;;;5050699;28;20037;-73
2023/03/05 18:51:41;;;;;;;6.10;2.78;;;5.40;99.90;;;;;;5051137;28;20025;-73
2023/03/05 18:54:08;;;;;;;5.68;3.53;;;5.40;99.90;;;;;;5051073;28;20040;-75
2023/03/05 18:56:34;;;;;;;6.80;3.50;;;5.30;99.90;;;;;;5042696;28;20068;-74
2023/03/05 18:58:59;;;;;;;8.05;3.60;;;5.30;99.90;;;;;;5030907;28;20505;-72
2023/03/05 19:01:25;;;;;;;6.38;3.50;;;5.30;99.90;;;;;;5031418;28;20095;-74
2023/03/05 19:03:51;;;;;;;9.07;3.67;;;5.30;99.90;;;;;;5030786;28;20477;-75
2023/03/05 19:06:17;;;;;;;8.45;4.00;;;5.20;99.90;;;;;;5063165;28;20120;-72
2023/03/05 19:08:43;;;;;;;9.27;4.32;;;5.20;99.90;;;;;;5031267;28;20026;-74
2023/03/05 19:11:16;;;;;;;7.05;4.13;;;5.20;99.90;;;;;;5034569;28;20028;-69
2023/03/05 19:13:50;;;;;;;5.78;3.78;;;5.20;99.90;;;;;;5051211;28;20021;-68
2023/03/05 19:16:19;;;;;;;5.40;3.63;;;5.10;99.90;;;;;;5049396;28;20022;-72
2023/03/05 19:19:12;;;;;;;6.65;3.42;;;5.10;99.90;;;;;;5049814;28;20100;-75
2023/03/05 19:21:38;;;;;;;6.57;3.88;;;5.00;99.90;;;;;;5050152;28;20076;-74
2023/03/05 19:24:05;;;;;;;6.35;3.55;;;5.00;99.90;;;;;;5050344;28;20115;-73
2023/03/05 19:26:30;;;;;;;6.93;3.72;;;5.00;99.90;;;;;;5051025;28;20032;-74
2023/03/05 19:28:56;;;;;;;6.68;3.85;;;4.90;99.90;;;;;;5050946;28;20354;-73
2023/03/05 19:31:22;;;;;;;5.55;3.50;;;4.90;99.90;;;;;;5048746;28;20028;-72
2023/03/05 19:33:48;;;;;;;6.03;3.30;;;4.90;99.90;;;;;;5038547;28;20080;-73
2023/03/05 19:36:13;;;;;;;6.50;3.67;;;4.90;99.90;;;;;;5030554;28;20486;-70
2023/03/05 19:38:39;;;;;;;5.72;3.20;;;4.90;99.90;;;;;;5030515;28;20064;-70
2023/03/05 19:41:07;;;;;;;6.72;3.45;;;4.90;99.90;;;;;;5030796;28;20024;-73
2023/03/05 19:43:33;;;;;;;6.32;3.35;;;4.80;99.90;;;;;;5031207;28;20052;-71
2023/03/05 19:46:03;;;;;;;5.25;3.60;;;4.80;99.90;;;;;;5034957;28;20471;-70
2023/03/05 19:48:30;;;;;;;7.95;3.38;;;4.80;99.90;;;;;;5033392;28;20067;-67
2023/03/05 19:50:56;;;;;;;5.60;3.47;;;4.80;99.90;;;;;;5034227;28;20025;-70
2023/03/05 19:53:22;;;;;;;6.10;3.65;;;4.80;99.90;;;;;;5032546;28;20021;-68
2023/03/05 19:55:48;;;;;;;5.45;3.13;;;4.80;99.90;;;;;;5033338;28;20485;-69
2023/03/05 19:58:14;;;;;;;4.90;3.08;;;4.70;99.90;;;;;;5035113;28;20049;-69
2023/03/05 20:00:40;;;;;;;5.30;3.28;;;4.70;99.90;;;;;;5034028;28;20021;-69
2023/03/05 20:03:05;;;;;;;5.75;3.30;;;4.70;99.90;;;;;;5035046;28;20120;-68
2023/03/05 20:05:31;;;;;;;6.53;3.30;;;4.70;99.90;;;;;;5032893;28;20074;-69
2023/03/05 20:07:57;;;;;;;7.35;3.47;;;4.70;99.90;;;;;;5032334;28;20096;-69
2023/03/05 20:10:23;;;;;;;7.97;4.00;;;4.70;99.90;;;;;;5034649;28;20478;-72
2023/03/05 20:12:49;;;;;;;8.52;4.47;;;4.60;99.90;;;;;;5047466;28;20040;-72
2023/03/05 20:15:16;;;;;;;9.38;3.72;;;4.60;99.90;;;;;;5052788;28;20013;-71
2023/03/05 20:17:44;;;;;;;7.28;3.63;;;4.60;99.90;;;;;;5052944;28;20029;-67
2023/03/05 20:20:16;;;;;;;7.18;3.60;;;4.60;99.90;;;;;;5050253;28;20416;-67
2023/03/05 20:22:46;;;;;;;7.20;3.45;;;4.60;99.90;;;;;;5052598;28;20029;-67
2023/03/05 20:25:15;;;;;;;7.78;4.68;;;4.60;99.90;;;;;;5051720;28;20516;-66
2023/03/05 20:27:41;;;;;;;7.32;4.38;;;4.60;99.90;;;;;;5051960;28;20036;-68
2023/03/05 20:30:10;;;;;;;5.95;3.25;;;4.50;99.90;;;;;;5052178;28;20027;-67
2023/03/05 20:32:36;;;;;;;10.20;4.10;;;4.50;99.90;;;;;;5054129;28;20029;-66
2023/03/05 20:35:02;;;;;;;5.65;3.67;;;4.50;99.90;;;;;;5040736;28;20013;-66
2023/03/05 20:37:38;;;;;;;7.70;4.20;;;4.50;99.90;;;;;;5033535;28;20476;-66
2023/03/05 20:40:05;;;;;;;6.18;3.70;;;4.50;99.90;;;;;;5034553;28;20021;-66
2023/03/05 20:42:31;;;;;;;6.55;3.80;;;4.50;99.90;;;;;;5036077;28;20020;-66
2023/03/05 20:44:57;;;;;;;6.50;3.53;;;4.50;99.90;;;;;;5035465;28;20107;-67
